createdAt,value
2018-03-28T00:02:10.136Z,8.52
2018-03-28T00:04:37.596Z,8.63
2018-03-28T00:07:05.049Z,8.43
2018-03-28T00:09:32.817Z,8.36
2018-03-28T00:12:00.275Z,8.27
2018-03-28T00:14:27.725Z,8.46
2018-03-28T00:16:55.547Z,8.48
2018-03-28T00:19:23.000Z,8.54
2018-03-28T00:21:50.463Z,8.37
2018-03-28T00:24:18.205Z,8.51
2018-03-28T00:26:45.655Z,8.70
2018-03-28T00:29:13.112Z,8.58
2018-03-28T00:31:40.890Z,8.58
2018-03-28T00:34:09.021Z,8.51
2018-03-28T00:36:36.492Z,8.18
2018-03-28T00:39:04.164Z,8.28
2018-03-28T00:41:31.630Z,8.34
2018-03-28T00:43:59.085Z,8.63
2018-03-28T00:46:27.034Z,8.67
2018-03-28T00:48:54.628Z,8.51
2018-03-28T00:51:40.347Z,8.55
2018-03-28T00:54:07.799Z,8.23
2018-03-28T00:56:35.262Z,8.44
2018-03-28T00:59:02.910Z,8.30
2018-03-28T01:01:30.382Z,8.08
2018-03-28T01:03:57.841Z,8.39
2018-03-28T01:06:25.508Z,8.27
2018-03-28T01:08:52.965Z,8.36
2018-03-28T01:11:20.421Z,8.43
2018-03-28T01:13:48.286Z,8.79
2018-03-28T01:16:15.766Z,8.76
2018-03-28T01:18:43.227Z,8.80
2018-03-28T01:21:10.997Z,8.54
2018-03-28T01:23:38.454Z,8.54
2018-03-28T01:26:05.919Z,8.54
2018-03-28T01:28:33.665Z,8.69
2018-03-28T01:31:01.152Z,8.98
2018-03-28T01:33:28.610Z,8.54
2018-03-28T01:35:57.570Z,8.36
2018-03-28T01:38:25.033Z,8.77
2018-03-28T01:40:52.489Z,8.33
2018-03-28T01:43:20.273Z,8.03
2018-03-28T01:45:47.732Z,8.43
2018-03-28T01:48:15.192Z,8.67
2018-03-28T01:50:42.957Z,8.78
2018-03-28T01:53:10.419Z,8.35
2018-03-28T01:55:37.876Z,8.10
2018-03-28T01:58:05.660Z,8.04
2018-03-28T02:00:33.121Z,8.15
2018-03-28T02:03:00.580Z,8.59
2018-03-28T02:05:28.225Z,8.57
2018-03-28T02:07:55.688Z,8.60
2018-03-28T02:10:23.155Z,8.72
2018-03-28T02:12:50.866Z,8.54
2018-03-28T02:15:18.330Z,8.28
2018-03-28T02:17:45.798Z,8.30
2018-03-28T02:20:13.700Z,8.26
2018-03-28T02:22:41.153Z,8.27
2018-03-28T02:25:08.614Z,8.29
2018-03-28T02:27:37.004Z,8.78
2018-03-28T02:32:31.230Z,8.94
2018-03-28T02:34:59.087Z,8.74
2018-03-28T02:37:26.992Z,8.77
2018-03-28T02:39:54.468Z,8.54
2018-03-28T02:42:22.389Z,8.89
2018-03-28T02:44:49.840Z,8.99
2018-03-28T02:47:17.317Z,8.79
2018-03-28T02:49:45.111Z,8.27
2018-03-28T02:52:12.576Z,8.36
2018-03-28T02:54:40.041Z,8.65
2018-03-28T02:57:08.210Z,8.91
2018-03-28T02:59:35.678Z,9.18
2018-03-28T03:02:03.173Z,9.16
2018-03-28T03:04:31.064Z,9.08
2018-03-28T03:06:58.521Z,8.89
2018-03-28T03:09:25.988Z,8.79
2018-03-28T03:11:53.745Z,8.50
2018-03-28T03:14:21.212Z,8.77
2018-03-28T03:16:48.669Z,8.99
2018-03-28T03:19:16.433Z,8.88
2018-03-28T03:21:44.657Z,8.80
2018-03-28T03:24:12.122Z,8.85
2018-03-28T03:26:39.715Z,8.57
2018-03-28T03:29:07.258Z,8.65
2018-03-28T03:31:34.726Z,8.70
2018-03-28T03:34:02.409Z,8.17
2018-03-28T03:36:29.886Z,8.56
2018-03-28T03:38:57.723Z,8.28
2018-03-28T03:41:25.618Z,8.54
2018-03-28T03:43:53.086Z,8.39
2018-03-28T03:46:20.563Z,8.61
2018-03-28T03:48:48.411Z,8.77
2018-03-28T03:51:15.927Z,8.62
2018-03-28T03:53:43.349Z,8.68
2018-03-28T03:56:11.088Z,8.77
2018-03-28T03:58:38.555Z,8.65
2018-03-28T04:01:06.020Z,8.65
2018-03-28T04:03:33.769Z,8.93
2018-03-28T04:06:01.222Z,9.17
2018-03-28T04:08:28.681Z,8.91
2018-03-28T04:10:56.461Z,9.24
2018-03-28T04:13:23.917Z,9.01
2018-03-28T04:15:51.381Z,9.06
2018-03-28T04:18:19.408Z,8.64
2018-03-28T04:20:46.870Z,8.83
2018-03-28T04:23:14.325Z,9.33
2018-03-28T04:25:42.124Z,9.30
2018-03-28T04:28:10.182Z,9.20
2018-03-28T04:30:37.635Z,8.97
2018-03-28T04:33:05.453Z,8.91
2018-03-28T04:35:32.921Z,8.94
2018-03-28T04:38:00.378Z,9.14
2018-03-28T04:40:29.677Z,9.41
2018-03-28T04:42:57.136Z,9.04
2018-03-28T04:45:24.601Z,8.94
2018-03-28T04:47:52.393Z,9.19
2018-03-28T04:50:19.859Z,9.09
2018-03-28T04:52:47.337Z,9.38
2018-03-28T04:55:15.349Z,9.13
2018-03-28T04:57:42.805Z,9.51
2018-03-28T05:00:10.270Z,9.36
2018-03-28T05:02:38.110Z,9.23
2018-03-28T05:05:05.565Z,9.42
2018-03-28T05:07:33.025Z,9.22
2018-03-28T05:10:01.038Z,8.98
2018-03-28T05:12:28.528Z,8.91
2018-03-28T05:14:55.989Z,8.95
2018-03-28T05:17:23.837Z,8.96
2018-03-28T05:19:51.293Z,9.03
2018-03-28T05:22:18.780Z,9.19
2018-03-28T05:24:46.535Z,9.05
2018-03-28T05:27:13.998Z,9.34
2018-03-28T05:29:41.453Z,9.16
2018-03-28T05:32:09.400Z,9.20
2018-03-28T05:34:36.858Z,9.27
2018-03-28T05:37:04.308Z,8.89
2018-03-28T05:39:32.093Z,9.24
2018-03-28T05:42:00.248Z,9.04
2018-03-28T05:44:27.711Z,9.24
2018-03-28T05:46:56.017Z,8.87
2018-03-28T05:49:23.478Z,9.10
2018-03-28T05:51:50.940Z,9.13
2018-03-28T05:54:18.997Z,9.57
2018-03-28T05:56:46.461Z,10.03
2018-03-28T05:59:13.923Z,9.26
2018-03-28T06:01:41.741Z,9.27
2018-03-28T06:04:09.206Z,9.22
2018-03-28T06:06:36.662Z,9.30
2018-03-28T06:09:04.376Z,9.23
2018-03-28T06:11:31.836Z,9.81
2018-03-28T06:13:59.312Z,9.49
2018-03-28T06:16:27.065Z,9.70
2018-03-28T06:18:54.529Z,9.26
2018-03-28T06:21:22.001Z,9.29
2018-03-28T06:23:49.746Z,9.28
2018-03-28T06:26:17.209Z,9.16
2018-03-28T06:28:44.668Z,9.19
2018-03-28T06:31:12.428Z,9.39
2018-03-28T06:33:39.890Z,9.10
2018-03-28T06:36:07.575Z,9.17
2018-03-28T06:38:35.282Z,9.52
2018-03-28T06:41:02.745Z,9.06
2018-03-28T06:43:30.209Z,9.18
2018-03-28T06:45:58.121Z,9.52
2018-03-28T06:48:25.589Z,9.54
2018-03-28T06:50:53.353Z,9.98
2018-03-28T06:53:21.424Z,10.35
2018-03-28T06:55:48.885Z,9.92
2018-03-28T06:58:16.354Z,10.10
2018-03-28T07:00:44.424Z,10.17
2018-03-28T07:03:11.896Z,9.53
2018-03-28T07:05:39.358Z,10.08
2018-03-28T07:08:07.104Z,10.02
2018-03-28T07:10:34.568Z,9.76
2018-03-28T07:13:02.028Z,9.73
2018-03-28T07:15:29.782Z,10.12
2018-03-28T07:17:57.251Z,9.92
2018-03-28T07:20:24.714Z,9.89
2018-03-28T07:22:52.481Z,9.87
2018-03-28T07:25:19.943Z,10.23
2018-03-28T07:27:47.417Z,10.03
2018-03-28T07:30:15.213Z,10.44
2018-03-28T07:32:42.687Z,10.03
2018-03-28T07:35:10.164Z,10.06
2018-03-28T07:37:37.841Z,10.11
2018-03-28T07:40:05.307Z,10.28
2018-03-28T07:42:32.814Z,10.20
2018-03-28T07:45:00.969Z,10.55
2018-03-28T07:47:28.430Z,10.50
2018-03-28T07:49:55.890Z,10.89
2018-03-28T07:52:24.148Z,11.03
2018-03-28T07:54:51.619Z,10.36
2018-03-28T07:57:19.080Z,10.16
2018-03-28T07:59:46.828Z,10.61
2018-03-28T08:02:14.286Z,9.62
2018-03-28T08:04:41.750Z,10.24
2018-03-28T08:07:09.778Z,11.04
2018-03-28T08:09:37.255Z,10.56
2018-03-28T08:12:04.713Z,9.63
2018-03-28T08:14:32.507Z,9.22
2018-03-28T08:16:59.964Z,9.83
2018-03-28T08:19:27.425Z,10.68
2018-03-28T08:21:55.206Z,10.57
2018-03-28T08:24:22.683Z,11.28
2018-03-28T08:26:50.142Z,10.98
2018-03-28T08:29:17.889Z,10.75
2018-03-28T08:31:45.349Z,9.13
2018-03-28T08:34:12.808Z,9.73
2018-03-28T08:36:41.189Z,9.54
2018-03-28T08:39:08.641Z,9.24
2018-03-28T08:41:36.114Z,10.17
2018-03-28T08:44:03.865Z,9.49
2018-03-28T08:46:33.251Z,9.60
2018-03-28T08:49:00.722Z,10.42
2018-03-28T08:51:28.701Z,10.57
2018-03-28T08:53:56.160Z,11.13
2018-03-28T08:56:23.637Z,11.49
2018-03-28T08:58:51.404Z,10.79
2018-03-28T09:01:19.818Z,10.95
2018-03-28T09:03:47.298Z,11.57
2018-03-28T09:06:15.011Z,11.25
2018-03-28T09:08:42.477Z,11.71
2018-03-28T09:11:09.941Z,11.32
2018-03-28T09:13:37.696Z,11.87
2018-03-28T09:16:05.156Z,10.57
2018-03-28T09:18:32.628Z,11.48
2018-03-28T09:21:00.374Z,11.89
2018-03-28T09:23:27.845Z,10.66
2018-03-28T09:25:55.317Z,11.01
2018-03-28T09:28:23.065Z,11.63
2018-03-28T09:30:50.541Z,11.41
2018-03-28T09:33:18.004Z,11.08
2018-03-28T09:35:45.771Z,10.99
2018-03-28T09:38:13.198Z,11.05
2018-03-28T09:40:40.672Z,10.93
2018-03-28T09:43:08.441Z,11.33
2018-03-28T09:45:35.957Z,11.49
2018-03-28T09:48:04.057Z,10.53
2018-03-28T09:50:31.753Z,11.44
2018-03-28T09:52:59.253Z,11.70
2018-03-28T09:55:26.725Z,11.66
2018-03-28T09:57:54.437Z,11.44
2018-03-28T10:00:26.755Z,11.95
2018-03-28T10:03:00.421Z,11.25
2018-03-28T10:05:33.397Z,11.86
2018-03-28T10:08:01.482Z,12.33
2018-03-28T10:10:28.962Z,11.95
2018-03-28T10:12:56.424Z,12.55
2018-03-28T10:15:24.162Z,13.28
2018-03-28T10:17:51.632Z,11.64
2018-03-28T10:20:19.096Z,12.23
2018-03-28T10:22:47.460Z,12.49
2018-03-28T10:25:14.925Z,12.47
2018-03-28T10:27:42.393Z,11.38
2018-03-28T10:30:10.150Z,11.17
2018-03-28T10:32:37.626Z,10.89
2018-03-28T10:35:05.195Z,11.96
2018-03-28T10:37:33.150Z,12.65
2018-03-28T10:40:00.633Z,12.43
2018-03-28T10:42:28.101Z,12.85
2018-03-28T10:44:56.142Z,12.59
2018-03-28T10:47:23.610Z,13.07
2018-03-28T10:49:51.449Z,12.51
2018-03-28T10:52:19.134Z,12.66
2018-03-28T10:54:46.599Z,12.40
2018-03-28T10:57:14.068Z,12.06
2018-03-28T10:59:41.811Z,13.40
2018-03-28T11:02:09.277Z,12.60
2018-03-28T11:04:36.790Z,13.41
2018-03-28T11:07:04.636Z,13.60
2018-03-28T11:09:32.116Z,13.34
2018-03-28T11:11:59.588Z,13.41
2018-03-28T11:14:27.349Z,13.21
2018-03-28T11:16:54.813Z,14.03
2018-03-28T11:19:22.277Z,13.70
2018-03-28T11:21:50.188Z,13.56
2018-03-28T11:24:17.653Z,14.70
2018-03-28T11:26:45.120Z,13.49
2018-03-28T11:29:12.874Z,12.61
2018-03-28T11:31:40.348Z,12.74
2018-03-28T11:34:07.817Z,12.46
2018-03-28T11:36:35.569Z,13.67
2018-03-28T11:39:03.033Z,13.25
2018-03-28T11:41:30.492Z,13.03
2018-03-28T11:43:58.229Z,12.93
2018-03-28T11:46:25.710Z,12.87
2018-03-28T11:48:53.176Z,12.46
2018-03-28T11:51:22.805Z,12.45
2018-03-28T11:53:50.271Z,12.65
2018-03-28T11:56:17.738Z,13.40
2018-03-28T11:58:45.479Z,12.82
2018-03-28T12:01:12.952Z,12.61
2018-03-28T12:03:40.416Z,12.10
2018-03-28T12:06:08.169Z,11.85
2018-03-28T12:08:35.631Z,12.63
2018-03-28T12:11:03.094Z,12.46
2018-03-28T12:13:30.770Z,12.33
2018-03-28T12:15:58.294Z,12.55
2018-03-28T12:18:25.730Z,12.92
2018-03-28T12:20:53.440Z,14.03
2018-03-28T12:23:26.681Z,14.04
2018-03-28T12:25:54.599Z,14.91
2018-03-28T12:28:27.018Z,14.25
2018-03-28T12:30:54.484Z,14.53
2018-03-28T12:33:22.363Z,14.52
2018-03-28T12:35:49.819Z,14.67
2018-03-28T12:38:17.273Z,14.41
2018-03-28T12:40:46.673Z,14.69
2018-03-28T12:43:14.145Z,15.30
2018-03-28T12:45:42.085Z,13.70
2018-03-28T12:48:10.022Z,15.43
2018-03-28T12:50:37.494Z,17.03
2018-03-28T12:53:05.366Z,17.55
2018-03-28T12:55:33.031Z,16.14
2018-03-28T12:58:00.503Z,17.02
2018-03-28T13:00:27.953Z,19.85
2018-03-28T13:02:55.715Z,19.98
2018-03-28T13:05:23.181Z,19.23
2018-03-28T13:07:50.653Z,17.99
2018-03-28T13:10:18.400Z,17.14
2018-03-28T13:12:46.814Z,15.64
2018-03-28T13:15:14.286Z,16.64
2018-03-28T13:17:42.006Z,15.01
2018-03-28T13:20:09.473Z,14.33
2018-03-28T13:22:36.941Z,15.70
2018-03-28T13:25:04.629Z,15.16
2018-03-28T13:27:32.121Z,15.81
2018-03-28T13:29:59.592Z,17.68
2018-03-28T13:32:27.384Z,16.19
2018-03-28T13:34:54.856Z,15.77
2018-03-28T13:37:22.326Z,15.26
2018-03-28T13:39:50.068Z,14.57
2018-03-28T13:42:17.536Z,15.75
2018-03-28T13:44:44.996Z,16.31
2018-03-28T13:47:12.759Z,16.79
2018-03-28T13:49:40.228Z,16.37
2018-03-28T13:52:07.689Z,17.16
2018-03-28T13:54:35.901Z,16.66
2018-03-28T13:57:03.369Z,17.03
2018-03-28T13:59:30.832Z,17.67
2018-03-28T14:01:58.709Z,15.75
2018-03-28T14:04:26.165Z,16.52
2018-03-28T14:06:53.633Z,17.57
2018-03-28T14:09:21.342Z,16.96
2018-03-28T14:11:48.804Z,17.67
2018-03-28T14:14:16.270Z,15.44
2018-03-28T14:16:44.117Z,16.69
2018-03-28T14:19:11.587Z,15.06
2018-03-28T14:21:39.048Z,15.49
2018-03-28T14:24:06.890Z,15.85
2018-03-28T14:26:34.368Z,16.61
2018-03-28T14:29:01.837Z,15.03
2018-03-28T14:31:29.558Z,14.96
2018-03-28T14:33:57.012Z,14.81
2018-03-28T14:36:24.505Z,14.90
2018-03-28T14:38:52.489Z,14.80
2018-03-28T14:41:19.950Z,14.50
2018-03-28T14:43:47.421Z,14.37
2018-03-28T14:46:15.172Z,14.54
2018-03-28T14:48:42.641Z,14.52
2018-03-28T14:51:10.123Z,14.41
2018-03-28T14:53:37.862Z,14.85
2018-03-28T14:56:05.710Z,14.90
2018-03-28T14:58:33.178Z,15.30
2018-03-28T15:01:00.898Z,15.63
2018-03-28T15:03:28.358Z,15.64
2018-03-28T15:05:55.829Z,15.66
2018-03-28T15:08:24.158Z,15.47
2018-03-28T15:10:51.621Z,15.18
2018-03-28T15:13:19.093Z,15.97
2018-03-28T15:15:46.848Z,15.85
2018-03-28T15:18:14.318Z,14.60
2018-03-28T15:20:41.776Z,14.98
2018-03-28T15:23:09.534Z,15.56
2018-03-28T15:25:36.993Z,15.86
2018-03-28T15:28:04.458Z,15.93
2018-03-28T15:30:32.214Z,15.62
2018-03-28T15:32:59.681Z,15.29
2018-03-28T15:35:27.140Z,15.21
2018-03-28T15:37:54.915Z,15.36
2018-03-28T15:40:22.397Z,14.89
2018-03-28T15:42:49.872Z,15.50
2018-03-28T15:45:17.603Z,15.66
2018-03-28T15:47:45.073Z,15.43
2018-03-28T15:50:12.545Z,15.50
2018-03-28T15:52:40.277Z,15.57
2018-03-28T15:55:07.749Z,15.74
2018-03-28T15:57:35.212Z,15.34
2018-03-28T16:00:02.974Z,15.49
2018-03-28T16:02:30.438Z,15.43
2018-03-28T16:04:57.907Z,15.65
2018-03-28T16:07:25.656Z,14.70
2018-03-28T16:09:53.115Z,15.19
2018-03-28T16:12:20.573Z,15.25
2018-03-28T16:14:48.337Z,15.58
2018-03-28T16:17:15.809Z,15.76
2018-03-28T16:19:43.266Z,15.56
2018-03-28T16:22:11.027Z,15.09
2018-03-28T16:24:38.507Z,15.60
2018-03-28T16:27:05.964Z,15.62
2018-03-28T16:29:34.044Z,15.31
2018-03-28T16:32:01.499Z,15.13
2018-03-28T16:34:29.093Z,15.15
2018-03-28T16:36:57.034Z,14.06
2018-03-28T16:39:24.538Z,14.17
2018-03-28T16:41:52.006Z,15.15
2018-03-28T16:44:19.710Z,15.11
2018-03-28T16:46:47.170Z,14.62
2018-03-28T16:49:14.636Z,14.97
2018-03-28T16:51:42.398Z,15.54
2018-03-28T16:54:10.420Z,15.39
2018-03-28T16:56:37.885Z,15.16
2018-03-28T16:59:05.998Z,15.28
2018-03-28T17:01:33.497Z,15.37
2018-03-28T17:04:00.946Z,15.35
2018-03-28T17:06:28.686Z,14.38
2018-03-28T17:08:56.148Z,14.57
2018-03-28T17:11:23.608Z,14.85
2018-03-28T17:13:51.388Z,14.56
2018-03-28T17:16:18.864Z,13.97
2018-03-28T17:18:46.345Z,14.20
2018-03-28T17:21:14.064Z,14.43
2018-03-28T17:23:41.529Z,14.11
2018-03-28T17:26:09.002Z,13.50
2018-03-28T17:28:36.625Z,13.74
2018-03-28T17:31:04.090Z,14.00
2018-03-28T17:33:31.552Z,14.50
2018-03-28T17:35:59.441Z,14.87
2018-03-28T17:38:26.902Z,15.17
2018-03-28T17:40:54.363Z,15.07
2018-03-28T17:43:22.122Z,14.70
2018-03-28T17:45:49.583Z,14.82
2018-03-28T17:48:17.054Z,13.79
2018-03-28T17:50:44.726Z,13.95
2018-03-28T17:53:12.189Z,14.09
2018-03-28T17:55:39.660Z,14.57
2018-03-28T17:58:07.505Z,14.53
2018-03-28T18:00:35.351Z,14.84
2018-03-28T18:03:02.809Z,14.64
2018-03-28T18:05:30.497Z,14.61
2018-03-28T18:07:57.980Z,14.46
2018-03-28T18:10:25.425Z,13.89
2018-03-28T18:12:53.176Z,13.84
2018-03-28T18:15:20.644Z,13.97
2018-03-28T18:17:48.143Z,13.99
2018-03-28T18:20:16.180Z,14.61
2018-03-28T18:22:43.649Z,14.85
2018-03-28T18:25:11.109Z,14.72
2018-03-28T18:27:38.867Z,14.69
2018-03-28T18:30:06.337Z,14.25
2018-03-28T18:32:33.802Z,14.49
2018-03-28T18:35:01.861Z,14.81
2018-03-28T18:37:29.321Z,14.63
2018-03-28T18:39:56.789Z,14.79
2018-03-28T18:42:24.547Z,14.54
2018-03-28T18:44:52.005Z,14.71
2018-03-28T18:47:19.470Z,14.10
2018-03-28T18:49:47.230Z,14.10
2018-03-28T18:52:14.697Z,14.35
2018-03-28T18:54:42.161Z,13.58
2018-03-28T18:57:10.238Z,12.89
2018-03-28T18:59:37.697Z,13.67
2018-03-28T19:02:05.874Z,13.83
2018-03-28T19:04:33.834Z,12.94
2018-03-28T19:07:01.406Z,13.39
2018-03-28T19:09:28.823Z,12.94
2018-03-28T19:11:56.526Z,13.48
2018-03-28T19:14:23.985Z,13.44
2018-03-28T19:16:51.456Z,13.29
2018-03-28T19:19:19.440Z,13.06
2018-03-28T19:21:47.528Z,13.12
2018-03-28T19:24:15.034Z,13.89
2018-03-28T19:26:43.120Z,13.11
2018-03-28T19:29:10.594Z,13.33
2018-03-28T19:31:38.418Z,14.05
2018-03-28T19:34:06.480Z,14.09
2018-03-28T19:36:33.970Z,14.39
2018-03-28T19:39:01.433Z,14.20
2018-03-28T19:41:29.123Z,14.46
2018-03-28T19:43:57.238Z,14.50
2018-03-28T19:46:24.724Z,14.40
2018-03-28T19:48:52.427Z,14.25
2018-03-28T19:51:19.904Z,14.52
2018-03-28T19:53:47.749Z,14.35
2018-03-28T19:56:15.408Z,14.19
2018-03-28T19:58:42.875Z,14.41
2018-03-28T20:01:10.342Z,14.35
2018-03-28T20:03:38.712Z,14.21
2018-03-28T20:06:06.835Z,14.30
2018-03-28T20:08:34.333Z,14.41
2018-03-28T20:11:02.060Z,14.52
2018-03-28T20:13:29.529Z,14.32
2018-03-28T20:15:57.319Z,14.26
2018-03-28T20:18:25.005Z,14.16
2018-03-28T20:20:52.470Z,14.42
2018-03-28T20:23:19.932Z,14.27
2018-03-28T20:25:48.286Z,14.10
2018-03-28T20:28:15.820Z,14.27
2018-03-28T20:30:43.325Z,14.05
2018-03-28T20:33:11.297Z,13.92
2018-03-28T20:35:38.808Z,13.96
2018-03-28T20:38:06.665Z,13.63
2018-03-28T20:40:34.601Z,13.84
2018-03-28T20:43:02.078Z,14.29
2018-03-28T20:45:29.582Z,14.08
2018-03-28T20:47:57.360Z,14.03
2018-03-28T20:50:24.820Z,14.17
2018-03-28T20:52:52.893Z,13.74
2018-03-28T20:55:20.912Z,13.96
2018-03-28T20:57:48.389Z,13.95
2018-03-28T21:00:15.849Z,13.91
2018-03-28T21:02:43.595Z,13.96
2018-03-28T21:05:11.425Z,14.09
2018-03-28T21:07:51.532Z,14.15
2018-03-28T21:10:18.987Z,14.41
2018-03-28T21:12:46.451Z,14.36
2018-03-28T21:15:14.422Z,14.47
2018-03-28T21:17:41.893Z,14.32
2018-03-28T21:20:09.352Z,14.60
2018-03-28T21:22:37.097Z,14.35
2018-03-28T21:25:04.570Z,14.50
2018-03-28T21:27:32.077Z,14.79
2018-03-28T21:29:59.776Z,14.43
2018-03-28T21:32:27.259Z,14.23
2018-03-28T21:34:54.735Z,14.09
2018-03-28T21:37:22.777Z,13.68
2018-03-28T21:39:50.247Z,14.04
2018-03-28T21:42:17.716Z,14.27
2018-03-28T21:44:45.461Z,14.05
2018-03-28T21:47:12.937Z,14.25
2018-03-28T21:49:40.407Z,13.44
2018-03-28T21:52:08.155Z,13.38
2018-03-28T21:54:35.616Z,13.48
2018-03-28T21:57:03.092Z,13.31
2018-03-28T21:59:30.844Z,12.96
2018-03-28T22:01:58.321Z,13.43
2018-03-28T22:04:25.786Z,14.22
2018-03-28T22:06:53.416Z,13.59
2018-03-28T22:09:20.874Z,13.32
2018-03-28T22:11:48.489Z,13.73
2018-03-28T22:14:16.217Z,14.16
2018-03-28T22:16:43.725Z,14.33
2018-03-28T22:19:11.178Z,14.43
2018-03-28T22:21:39.105Z,14.24
2018-03-28T22:24:06.592Z,14.09
2018-03-28T22:26:34.050Z,13.78
2018-03-28T22:29:01.941Z,14.23
2018-03-28T22:31:29.417Z,14.35
2018-03-28T22:33:56.886Z,14.25
2018-03-28T22:36:24.885Z,13.89
2018-03-28T22:38:52.352Z,13.91
2018-03-28T22:41:19.816Z,14.08
2018-03-28T22:43:47.571Z,14.42
2018-03-28T22:46:15.029Z,13.81
2018-03-28T22:48:42.515Z,13.59
2018-03-28T22:51:10.260Z,13.30
2018-03-28T22:53:37.723Z,13.51
2018-03-28T22:56:05.184Z,13.84
2018-03-28T22:58:32.960Z,14.24
2018-03-28T23:01:00.422Z,13.92
2018-03-28T23:03:27.878Z,13.70
2018-03-28T23:05:55.637Z,13.67
2018-03-28T23:08:23.101Z,13.09
2018-03-28T23:11:02.532Z,13.56
2018-03-28T23:13:29.993Z,13.55
2018-03-28T23:15:57.460Z,13.54
2018-03-28T23:18:25.223Z,13.36
2018-03-28T23:20:52.687Z,13.09
2018-03-28T23:23:20.157Z,13.44
2018-03-28T23:25:47.917Z,13.43
2018-03-28T23:28:15.377Z,13.36
2018-03-28T23:30:42.849Z,13.55
2018-03-28T23:33:10.604Z,13.33
2018-03-28T23:35:38.076Z,13.30
2018-03-28T23:38:05.533Z,13.66
2018-03-28T23:40:33.171Z,14.04
2018-03-28T23:43:00.641Z,12.97
2018-03-28T23:45:28.100Z,12.74
2018-03-28T23:47:55.993Z,12.73
2018-03-28T23:50:23.457Z,12.87
2018-03-28T23:52:50.913Z,12.84
2018-03-28T23:55:18.717Z,13.21
2018-03-28T23:57:46.177Z,13.33
